Time;durP1;ratioP1;P1;durP2;ratioP2;P2;SDS_P1;SDS_P2;PMS_P1;PMS_P2;Temp;Humidity;BMP_temperature;BMP_pressure;BME280_temperature;BME280_humidity;BME280_pressure;Samples;Min_cycle;Max_cycle;Signal;HPM_P1;HPM_P2
2023/02/16 00:01:42;;;;;;;29.57;16.77;;;0.30;99.90;;;;;;6164594;23;20420;-91
2023/02/16 00:04:18;;;;;;;25.40;17.03;;;0.30;99.90;;;;;;6164002;23;20819;-94
2023/02/16 00:06:45;;;;;;;29.23;18.70;;;0.20;99.90;;;;;;6164820;23;20456;-94
2023/02/16 00:09:11;;;;;;;30.57;18.50;;;0.20;99.90;;;;;;6165967;23;20419;-93
2023/02/16 00:14:25;;;;;;;27.77;17.73;;;0.20;99.90;;;;;;6170104;23;20448;-93
2023/02/16 00:16:52;;;;;;;26.83;15.60;;;0.20;99.90;;;;;;6169325;23;20415;-91
2023/02/16 00:19:22;;;;;;;29.73;17.60;;;0.20;99.90;;;;;;6169086;23;20646;-94
2023/02/16 00:21:50;;;;;;;26.60;17.10;;;0.30;99.90;;;;;;6166528;23;20409;-93
2023/02/16 00:24:17;;;;;;;26.90;16.70;;;0.30;99.90;;;;;;6160826;23;20411;-93
2023/02/16 00:26:46;;;;;;;28.20;16.50;;;0.20;99.90;;;;;;6159057;23;20436;-93
2023/02/16 00:29:19;;;;;;;28.97;17.20;;;0.20;99.90;;;;;;6160699;23;20400;-91
2023/02/16 00:31:46;;;;;;;27.30;17.87;;;0.20;99.90;;;;;;6160503;23;20408;-92
2023/02/16 00:34:26;;;;;;;34.50;18.37;;;0.20;99.90;;;;;;6159524;23;20496;-92
2023/02/16 00:36:53;;;;;;;24.10;16.27;;;0.20;99.90;;;;;;6159191;23;20487;-88
2023/02/16 00:39:20;;;;;;;26.80;14.47;;;0.30;99.90;;;;;;6158925;23;20444;-93
2023/02/16 00:41:50;;;;;;;27.77;16.10;;;0.20;99.90;;;;;;6159237;23;20502;-91
2023/02/16 00:44:21;;;;;;;24.73;14.60;;;0.20;99.90;;;;;;6159637;23;20432;-89
2023/02/16 00:46:48;;;;;;;25.57;15.50;;;0.10;99.90;;;;;;6161456;23;20435;-92
2023/02/16 00:49:20;;;;;;;22.60;14.10;;;0.20;99.90;;;;;;6168157;23;20400;-91
2023/02/16 00:51:48;;;;;;;23.63;15.57;;;1.20;99.90;;;;;;6169517;23;20425;-91
2023/02/16 00:54:16;;;;;;;24.37;14.67;;;0.20;99.90;;;;;;6172385;23;20422;-92
2023/02/16 00:56:43;;;;;;;25.23;14.13;;;0.20;99.90;;;;;;6177238;23;20484;-94
2023/02/16 00:59:15;;;;;;;19.20;13.00;;;0.00;99.90;;;;;;6175544;23;20511;-92
2023/02/16 01:01:42;;;;;;;18.13;13.50;;;0.20;99.90;;;;;;6168171;23;20472;-92
2023/02/16 01:04:12;;;;;;;17.60;13.90;;;0.20;99.90;;;;;;6161649;23;20423;-94
2023/02/16 01:12:16;;;;;;;25.93;14.50;;;0.20;99.90;;;;;;6075542;23;20489;-91
2023/02/16 01:14:46;;;;;;;27.77;14.93;;;0.20;99.90;;;;;;6159964;23;20902;-92
2023/02/16 01:17:12;;;;;;;31.13;14.33;;;0.20;99.90;;;;;;6160186;23;20440;-91
2023/02/16 01:19:39;;;;;;;24.93;14.00;;;0.20;99.90;;;;;;6160409;23;20451;-93
2023/02/16 01:22:06;;;;;;;22.53;15.17;;;0.20;99.90;;;;;;6160575;23;20417;-91
2023/02/16 01:24:34;;;;;;;20.93;14.07;;;0.30;99.90;;;;;;6160314;23;20443;-92
2023/02/16 01:27:01;;;;;;;21.80;15.13;;;0.30;99.90;;;;;;6160324;23;20405;-91
2023/02/16 01:29:28;;;;;;;25.10;15.40;;;0.30;99.90;;;;;;6168325;23;20513;-90
2023/02/16 01:31:54;;;;;;;22.83;14.30;;;0.30;99.90;;;;;;6176570;23;20415;-90
2023/02/16 01:34:21;;;;;;;23.93;15.87;;;0.30;99.90;;;;;;6174107;23;20425;-90
2023/02/16 01:36:49;;;;;;;29.07;15.60;;;0.30;99.90;;;;;;6182120;23;20407;-87
2023/02/16 01:54:50;;;;;;;27.57;17.80;;;0.50;99.90;;;;;;6177324;23;20433;-90
2023/02/16 01:57:27;;;;;;;32.90;20.17;;;0.30;99.90;;;;;;6169250;23;20396;-87
2023/02/16 02:00:17;;;;;;;33.87;19.30;;;1.00;99.90;;;;;;6172738;23;20795;-89
2023/02/16 02:02:48;;;;;;;28.80;18.67;;;0.70;99.90;;;;;;6176691;23;20435;-91
2023/02/16 02:15:24;;;;;;;32.63;21.30;;;0.10;99.90;;;;;;6242579;23;20426;-89
2023/02/16 02:26:12;;;;;;;35.27;17.97;;;0.00;99.90;;;;;;6162956;23;20458;-88
2023/02/16 02:28:51;;;;;;;31.40;16.60;;;0.10;99.90;;;;;;6151441;23;20412;-91
2023/02/16 02:31:27;;;;;;;25.90;18.00;;;0.00;99.90;;;;;;6183936;23;20393;-82
2023/02/16 02:34:03;;;;;;;32.40;16.00;;;0.00;99.90;;;;;;6168045;23;20467;-80
2023/02/16 02:36:39;;;;;;;24.67;15.10;;;0.80;99.90;;;;;;6178196;23;20400;-90
2023/02/16 02:39:19;;;;;;;26.57;16.20;;;-0.10;99.90;;;;;;6177901;23;20509;-89
2023/02/16 03:31:18;;;;;;;22.30;14.57;;;-0.30;99.90;;;;;;6150123;23;20415;-78
2023/02/16 03:51:54;;;;;;;22.17;14.33;;;-0.10;99.90;;;;;;6187990;23;20448;-90
2023/02/16 03:54:21;;;;;;;18.20;13.57;;;-0.80;99.90;;;;;;6238832;23;20435;-93
2023/02/16 03:56:48;;;;;;;23.67;12.43;;;-0.30;99.90;;;;;;6237220;23;20595;-93
2023/02/16 03:59:15;;;;;;;19.77;11.30;;;0.00;99.90;;;;;;6238436;23;20451;-95
2023/02/16 04:01:42;;;;;;;18.30;11.97;;;0.30;99.90;;;;;;6239311;23;20438;-95
2023/02/16 04:04:08;;;;;;;22.77;12.37;;;-0.50;99.90;;;;;;6239625;23;20406;-95
2023/02/16 04:06:35;;;;;;;16.33;11.63;;;-0.40;99.90;;;;;;6238822;23;20394;-90
2023/02/16 04:09:04;;;;;;;21.20;12.40;;;-0.40;99.90;;;;;;6238168;23;20395;-91
2023/02/16 04:47:57;;;;;;;19.60;9.90;;;-0.50;99.90;;;;;;6189346;23;20466;-91
2023/02/16 04:50:24;;;;;;;21.23;11.40;;;-0.60;99.90;;;;;;6212855;23;20415;-93
2023/02/16 04:52:51;;;;;;;21.80;7.40;;;-0.50;99.90;;;;;;6213278;23;20520;-90
2023/02/16 04:55:18;;;;;;;16.40;9.77;;;-1.10;99.90;;;;;;6213544;23;20419;-91
2023/02/16 04:57:45;;;;;;;13.37;8.27;;;-0.40;99.90;;;;;;6213076;23;20410;-91
2023/02/16 05:00:13;;;;;;;14.53;8.53;;;-0.50;99.90;;;;;;6213292;23;20454;-94
2023/02/16 05:02:40;;;;;;;11.93;9.20;;;-0.50;99.90;;;;;;6212672;23;20416;-92
2023/02/16 05:05:09;;;;;;;12.60;8.73;;;-0.40;99.90;;;;;;6213803;23;20404;-90
2023/02/16 05:07:36;;;;;;;12.27;7.83;;;-0.30;99.90;;;;;;6213146;23;20430;-92
2023/02/16 05:10:05;;;;;;;13.37;8.87;;;-0.30;99.90;;;;;;6212398;23;20395;-92
2023/02/16 05:21:28;;;;;;;15.17;9.57;;;-0.30;99.90;;;;;;6173775;23;20492;-93
2023/02/16 05:35:57;;;;;;;9.60;5.67;;;0.10;99.90;;;;;;6149475;23;20448;-92
2023/02/16 05:46:09;;;;;;;8.47;5.73;;;0.00;99.90;;;;;;6162320;23;20467;-93
2023/02/16 05:48:36;;;;;;;5.47;4.17;;;-0.70;99.90;;;;;;6158279;23;20475;-91
2023/02/16 05:51:05;;;;;;;10.03;3.97;;;-0.10;99.90;;;;;;6167975;23;20452;-93
2023/02/16 05:53:32;;;;;;;6.43;4.47;;;0.00;99.90;;;;;;6175630;23;20423;-93
2023/02/16 05:55:58;;;;;;;5.10;3.83;;;0.10;99.90;;;;;;6170333;23;20440;-94
2023/02/16 05:58:25;;;;;;;5.97;5.07;;;0.00;99.90;;;;;;6162438;23;20897;-93
2023/02/16 06:03:28;;;;;;;6.00;4.03;;;0.10;99.90;;;;;;6169352;23;20428;-94
2023/02/16 06:11:34;;;;;;;10.43;4.80;;;-0.10;99.90;;;;;;6157373;23;20467;-91
2023/02/16 06:19:06;;;;;;;8.80;3.80;;;0.50;99.90;;;;;;6142408;23;20380;-92
2023/02/16 07:27:03;;;;;;;8.07;5.53;;;2.30;99.90;;;;;;6231237;22;20479;-92
2023/02/16 07:29:30;;;;;;;10.63;5.50;;;0.50;99.90;;;;;;6298156;22;20459;-93
2023/02/16 07:31:57;;;;;;;6.57;4.53;;;2.40;99.90;;;;;;6272522;22;20453;-94
2023/02/16 07:34:24;;;;;;;62.90;54.53;;;2.60;99.90;;;;;;6266601;23;20386;-92
2023/02/16 07:36:51;;;;;;;8.03;5.30;;;2.60;99.90;;;;;;6273641;23;20437;-94
2023/02/16 07:39:19;;;;;;;7.40;5.10;;;2.60;99.90;;;;;;6271153;22;20414;-93
2023/02/16 07:41:46;;;;;;;6.83;4.70;;;3.30;99.90;;;;;;6277638;22;20420;-94
2023/02/16 08:04:44;;;;;;;9.07;6.80;;;4.60;99.90;;;;;;6245015;22;20425;-90
2023/02/16 08:09:42;;;;;;;13.53;6.93;;;4.60;99.90;;;;;;6262760;22;20453;-92
2023/02/16 08:12:10;;;;;;;10.80;7.30;;;4.40;99.90;;;;;;6266697;22;20456;-93
2023/02/16 08:14:37;;;;;;;13.57;6.83;;;4.70;99.90;;;;;;6264777;23;20410;-90
2023/02/16 08:17:05;;;;;;;15.67;8.30;;;5.10;99.90;;;;;;6260913;23;20402;-92
2023/02/16 08:19:33;;;;;;;12.57;8.10;;;5.50;99.90;;;;;;6265308;23;20411;-94
2023/02/16 08:22:03;;;;;;;13.87;8.60;;;5.90;99.90;;;;;;6265546;23;20398;-93
2023/02/16 08:24:30;;;;;;;12.30;6.83;;;6.00;99.90;;;;;;6264871;23;20436;-93
2023/02/16 08:29:34;;;;;;;13.13;9.00;;;6.10;99.90;;;;;;6262461;22;20429;-91
2023/02/16 08:34:32;;;;;;;20.97;8.30;;;6.50;99.90;;;;;;6257701;22;20545;-94
2023/02/16 08:47:19;;;;;;;8.77;6.27;;;7.60;99.90;;;;;;6207204;22;20394;-76
2023/02/16 08:49:46;;;;;;;11.83;7.17;;;8.50;99.90;;;;;;6213943;23;20497;-76
2023/02/16 08:52:13;;;;;;;12.10;6.13;;;7.60;99.90;;;;;;6212872;23;20490;-76
2023/02/16 08:54:40;;;;;;;9.07;6.90;;;7.90;99.90;;;;;;6211964;23;20403;-75
2023/02/16 08:57:07;;;;;;;11.73;6.80;;;7.90;99.90;;;;;;6212910;23;20493;-76
2023/02/16 08:59:34;;;;;;;14.43;7.30;;;7.10;99.90;;;;;;6216456;23;20812;-76
2023/02/16 09:02:01;;;;;;;15.27;8.30;;;7.00;99.90;;;;;;6214480;23;20411;-75
2023/02/16 09:04:29;;;;;;;11.70;6.97;;;7.40;99.90;;;;;;6209481;23;20411;-75
2023/02/16 09:06:58;;;;;;;22.63;8.77;;;7.10;99.90;;;;;;6211208;23;20462;-75
2023/02/16 09:09:25;;;;;;;13.80;7.93;;;7.50;99.90;;;;;;6208301;23;21051;-75
2023/02/16 09:11:52;;;;;;;49.43;16.00;;;7.30;99.90;;;;;;6208608;23;20449;-75
2023/02/16 09:14:20;;;;;;;8.13;5.60;;;7.70;99.90;;;;;;6208627;23;20939;-75
2023/02/16 09:16:47;;;;;;;18.30;7.23;;;8.30;99.90;;;;;;6208674;23;20450;-75
2023/02/16 09:19:16;;;;;;;11.83;6.80;;;8.20;99.90;;;;;;6208745;23;20901;-76
2023/02/16 09:21:45;;;;;;;12.40;6.10;;;8.20;99.90;;;;;;6197035;23;20411;-75
2023/02/16 09:24:12;;;;;;;10.43;6.77;;;8.60;99.90;;;;;;6208281;23;20403;-75
2023/02/16 09:26:41;;;;;;;17.03;6.70;;;8.50;99.90;;;;;;6207704;23;20413;-76
2023/02/16 09:29:09;;;;;;;13.97;7.07;;;9.10;99.90;;;;;;6208350;23;20539;-76
2023/02/16 09:31:38;;;;;;;12.27;7.07;;;9.10;99.90;;;;;;6208021;23;20755;-76
2023/02/16 09:34:07;;;;;;;10.23;7.00;;;8.70;99.90;;;;;;6208201;23;20414;-75
2023/02/16 09:36:35;;;;;;;11.30;6.13;;;8.80;99.90;;;;;;6205613;23;20407;-74
2023/02/16 09:39:03;;;;;;;13.97;8.13;;;8.90;99.90;;;;;;6206365;23;21003;-75
2023/02/16 09:41:44;;;;;;;10.43;7.10;;;9.30;99.90;;;;;;6206600;23;20795;-75
2023/02/16 09:44:19;;;;;;;14.27;8.37;;;9.30;99.90;;;;;;6208506;23;20431;-75
2023/02/16 09:46:46;;;;;;;12.60;7.77;;;9.50;99.90;;;;;;6207554;23;20892;-74
2023/02/16 09:49:23;;;;;;;13.77;8.83;;;9.30;99.90;;;;;;6207678;23;20458;-76
2023/02/16 09:51:58;;;;;;;11.20;7.17;;;9.30;99.90;;;;;;6207577;23;20800;-75
2023/02/16 09:54:33;;;;;;;11.17;6.97;;;9.40;99.90;;;;;;6208082;23;20387;-77
2023/02/16 09:57:07;;;;;;;19.13;7.30;;;9.20;99.90;;;;;;6207640;23;20578;-75
2023/02/16 09:59:44;;;;;;;14.10;9.03;;;9.30;99.90;;;;;;6207536;23;20414;-75
2023/02/16 10:02:38;;;;;;;15.30;7.17;;;9.70;99.90;;;;;;6207523;23;20869;-76
2023/02/16 10:05:18;;;;;;;14.70;7.40;;;9.50;99.90;;;;;;6207894;23;20628;-75
2023/02/16 10:07:56;;;;;;;12.33;6.20;;;9.40;99.90;;;;;;6207487;23;20398;-74
2023/02/16 10:10:30;;;;;;;12.90;6.80;;;9.80;99.90;;;;;;6208123;23;20524;-74
2023/02/16 10:13:02;;;;;;;13.77;9.80;;;10.00;99.90;;;;;;6207729;23;20406;-75
2023/02/16 10:15:32;;;;;;;14.73;8.00;;;10.00;99.90;;;;;;6207195;23;20420;-74
2023/02/16 10:18:01;;;;;;;13.17;8.20;;;10.20;99.90;;;;;;6207569;23;20443;-75
2023/02/16 10:20:33;;;;;;;13.17;7.97;;;10.20;99.90;;;;;;6207679;23;20980;-75
2023/02/16 10:23:07;;;;;;;13.87;8.80;;;10.10;99.90;;;;;;6207564;23;20395;-75
2023/02/16 10:25:43;;;;;;;15.27;9.47;;;9.90;99.90;;;;;;6207830;23;20388;-75
2023/02/16 10:28:16;;;;;;;11.77;7.50;;;9.90;99.90;;;;;;6207324;23;20632;-74
2023/02/16 10:30:48;;;;;;;13.20;8.47;;;10.30;99.90;;;;;;6208266;23;20406;-73
2023/02/16 10:33:17;;;;;;;13.50;8.40;;;10.30;99.90;;;;;;6208011;23;20392;-73
2023/02/16 10:35:47;;;;;;;14.73;8.90;;;10.30;99.90;;;;;;6207822;23;20453;-73
2023/02/16 10:38:20;;;;;;;10.83;7.40;;;10.30;99.90;;;;;;6210382;23;20407;-73
2023/02/16 10:40:55;;;;;;;16.40;8.60;;;10.70;99.90;;;;;;6208734;23;20403;-73
2023/02/16 10:43:30;;;;;;;12.60;7.00;;;11.00;99.90;;;;;;6207916;23;20427;-73
2023/02/16 10:46:00;;;;;;;15.13;9.73;;;11.80;99.90;;;;;;6208385;23;20865;-73
2023/02/16 10:48:27;;;;;;;10.50;7.80;;;11.40;99.90;;;;;;6207287;23;20435;-73
2023/02/16 10:50:58;;;;;;;9.20;6.87;;;11.20;99.90;;;;;;6208144;23;20407;-73
2023/02/16 10:53:36;;;;;;;11.87;6.13;;;11.00;99.90;;;;;;6207952;23;20402;-74
2023/02/16 10:56:27;;;;;;;11.30;7.20;;;10.80;99.90;;;;;;6208333;23;20395;-74
2023/02/16 10:58:54;;;;;;;14.40;7.20;;;11.10;99.90;;;;;;6208311;23;20406;-73
2023/02/16 11:01:31;;;;;;;10.07;6.17;;;11.30;99.90;;;;;;6208145;23;20447;-73
2023/02/16 11:03:58;;;;;;;12.37;7.97;;;11.30;99.90;;;;;;6208110;23;20395;-73
2023/02/16 11:06:25;;;;;;;10.43;6.70;;;11.10;99.90;;;;;;6208154;23;20407;-73
2023/02/16 11:08:55;;;;;;;13.43;7.67;;;11.40;99.90;;;;;;6207877;23;20435;-73
2023/02/16 11:11:27;;;;;;;13.67;7.47;;;11.40;99.90;;;;;;6211559;23;20392;-73
2023/02/16 11:14:00;;;;;;;14.10;6.97;;;11.50;99.90;;;;;;6208515;23;20727;-73
2023/02/16 11:16:27;;;;;;;9.27;6.33;;;11.70;99.90;;;;;;6208385;23;20480;-72
2023/02/16 11:19:01;;;;;;;8.23;6.50;;;12.10;99.90;;;;;;6208288;23;20414;-72
2023/02/16 11:21:46;;;;;;;12.07;7.60;;;11.70;99.90;;;;;;6207965;23;20425;-72
2023/02/16 11:24:23;;;;;;;7.70;6.40;;;11.60;99.90;;;;;;6208157;23;20428;-72
2023/02/16 11:27:02;;;;;;;10.50;7.70;;;11.50;99.90;;;;;;6209880;23;20402;-72
2023/02/16 11:29:30;;;;;;;11.77;7.33;;;11.70;99.90;;;;;;6209841;23;20768;-72
2023/02/16 11:31:57;;;;;;;12.27;8.10;;;11.90;99.90;;;;;;6209801;23;20425;-72
2023/02/16 11:34:31;;;;;;;11.50;6.70;;;11.80;99.90;;;;;;6209721;23;20810;-74
2023/02/16 11:37:04;;;;;;;9.40;6.70;;;11.90;99.90;;;;;;6209952;23;20486;-72
2023/02/16 11:39:37;;;;;;;10.67;7.90;;;12.10;99.90;;;;;;6209855;23;20391;-72
2023/02/16 11:42:08;;;;;;;9.97;6.67;;;12.50;99.90;;;;;;6209968;23;20396;-72
2023/02/16 11:44:37;;;;;;;11.40;7.40;;;12.70;99.90;;;;;;6209777;23;20487;-72
2023/02/16 11:47:06;;;;;;;7.03;6.30;;;12.80;99.90;;;;;;6209886;23;20409;-72
2023/02/16 11:49:35;;;;;;;8.13;6.73;;;13.60;99.90;;;;;;6209602;23;20760;-73
2023/02/16 11:52:19;;;;;;;10.50;7.03;;;13.50;99.90;;;;;;6209784;23;20843;-72
2023/02/16 11:54:48;;;;;;;7.70;6.03;;;13.40;99.90;;;;;;6210230;23;20712;-73
2023/02/16 11:57:24;;;;;;;8.10;5.53;;;13.50;99.90;;;;;;6210106;23;20414;-72
2023/02/16 11:59:51;;;;;;;8.70;5.60;;;13.70;99.90;;;;;;6209473;23;20387;-72
2023/02/16 12:03:05;;;;;;;7.37;6.17;;;13.70;99.90;;;;;;6209964;23;20403;-72
2023/02/16 12:05:44;;;;;;;6.27;5.60;;;14.50;99.90;;;;;;6210475;23;20450;-72
2023/02/16 12:08:24;;;;;;;6.53;5.50;;;14.30;99.90;;;;;;6211474;23;20403;-72
2023/02/16 12:11:05;;;;;;;12.50;7.30;;;14.30;99.90;;;;;;6211891;23;20446;-72
2023/02/16 12:13:41;;;;;;;10.83;5.90;;;14.30;99.90;;;;;;6211534;23;20466;-72
2023/02/16 12:16:24;;;;;;;7.20;5.17;;;14.80;99.90;;;;;;6214669;23;20407;-72
2023/02/16 12:19:02;;;;;;;6.87;5.00;;;14.60;99.90;;;;;;6213781;23;20458;-72
2023/02/16 12:21:35;;;;;;;7.97;6.50;;;14.10;99.90;;;;;;6212699;23;20387;-72
2023/02/16 12:24:10;;;;;;;7.90;5.57;;;14.20;99.90;;;;;;6210054;23;20387;-72
2023/02/16 12:26:42;;;;;;;7.33;4.60;;;13.90;99.90;;;;;;6211951;23;20395;-74
2023/02/16 12:29:23;;;;;;;5.60;4.40;;;13.90;99.90;;;;;;6212676;23;20491;-73
2023/02/16 12:32:04;;;;;;;6.00;4.53;;;14.30;99.90;;;;;;6215670;23;20395;-73
2023/02/16 12:34:43;;;;;;;5.93;4.83;;;14.10;99.90;;;;;;6214030;23;20403;-73
2023/02/16 12:37:21;;;;;;;8.00;5.43;;;13.90;99.90;;;;;;6215779;23;20438;-72
2023/02/16 12:39:57;;;;;;;6.73;4.87;;;14.50;99.90;;;;;;6215510;23;20510;-73
2023/02/16 12:42:41;;;;;;;7.73;4.77;;;14.90;99.90;;;;;;6216452;23;20702;-75
2023/02/16 12:45:16;;;;;;;6.20;4.87;;;15.10;99.90;;;;;;6216316;23;20459;-75
2023/02/16 12:47:47;;;;;;;7.80;5.40;;;15.40;99.90;;;;;;6212239;23;20444;-74
2023/02/16 12:50:19;;;;;;;10.10;6.13;;;14.80;99.90;;;;;;6213244;23;20866;-73
2023/02/16 12:52:52;;;;;;;12.50;5.77;;;15.00;99.90;;;;;;6210554;23;20496;-72
2023/02/16 12:55:22;;;;;;;7.83;5.93;;;14.80;99.90;;;;;;6208889;23;20846;-73
2023/02/16 12:57:59;;;;;;;7.07;5.40;;;15.00;99.90;;;;;;6207854;23;20586;-73
2023/02/16 13:00:36;;;;;;;5.97;5.00;;;15.30;99.90;;;;;;6207774;23;20657;-73
2023/02/16 13:03:16;;;;;;;8.03;4.93;;;15.80;99.90;;;;;;6208252;23;20395;-73
2023/02/16 13:05:45;;;;;;;8.47;5.53;;;15.30;99.90;;;;;;6208319;23;20741;-73
2023/02/16 13:08:17;;;;;;;8.23;5.20;;;14.60;99.90;;;;;;6208113;23;20419;-74
2023/02/16 13:10:54;;;;;;;10.00;5.20;;;15.00;99.90;;;;;;6207567;23;20427;-74
2023/02/16 13:13:26;;;;;;;7.70;5.10;;;15.20;99.90;;;;;;6207569;23;20391;-74
2023/02/16 13:16:01;;;;;;;6.50;5.30;;;15.30;99.90;;;;;;6208348;23;20410;-74
2023/02/16 13:18:32;;;;;;;7.80;5.90;;;15.40;99.90;;;;;;6207692;23;20438;-74
2023/02/16 13:21:04;;;;;;;10.00;6.40;;;15.40;99.90;;;;;;6207616;23;20728;-75
2023/02/16 13:23:41;;;;;;;13.43;6.67;;;16.20;99.90;;;;;;6207791;23;20383;-74
2023/02/16 13:26:38;;;;;;;8.77;6.00;;;15.80;99.90;;;;;;6207913;23;20398;-73
2023/02/16 13:29:36;;;;;;;9.57;5.60;;;15.60;99.90;;;;;;6197920;23;20415;-72
2023/02/16 13:32:23;;;;;;;7.17;6.00;;;15.40;99.90;;;;;;6209121;23;20491;-72
2023/02/16 13:35:16;;;;;;;10.13;6.07;;;15.60;99.90;;;;;;6209037;23;20442;-73
2023/02/16 13:37:57;;;;;;;12.97;6.33;;;15.60;99.90;;;;;;6208705;23;20733;-74
2023/02/16 13:40:50;;;;;;;7.60;6.20;;;15.00;99.90;;;;;;6199736;23;20387;-73
2023/02/16 13:43:43;;;;;;;7.77;4.80;;;15.40;99.90;;;;;;6200424;23;20395;-74
2023/02/16 13:46:18;;;;;;;7.97;5.73;;;15.30;99.90;;;;;;6204666;23;20406;-73
2023/02/16 13:48:52;;;;;;;12.30;6.20;;;15.60;99.90;;;;;;6206085;23;20775;-73
2023/02/16 13:51:21;;;;;;;8.53;6.60;;;15.00;99.90;;;;;;6204944;23;20451;-73
2023/02/16 13:53:55;;;;;;;10.47;6.57;;;15.90;99.90;;;;;;6205128;23;20495;-73
2023/02/16 13:56:34;;;;;;;9.60;6.30;;;15.60;99.90;;;;;;6205594;23;20443;-73
2023/02/16 13:59:34;;;;;;;7.77;5.90;;;15.60;99.90;;;;;;6204748;23;20403;-75
2023/02/16 14:02:01;;;;;;;12.70;6.30;;;15.80;99.90;;;;;;6203879;23;20419;-72
2023/02/16 14:05:09;;;;;;;7.40;5.33;;;16.00;99.90;;;;;;6205156;23;20494;-75
2023/02/16 14:07:38;;;;;;;11.37;6.00;;;16.00;99.90;;;;;;6204599;23;20435;-73
2023/02/16 14:10:07;;;;;;;8.73;6.10;;;15.50;99.90;;;;;;6205029;23;20558;-73
2023/02/16 14:12:39;;;;;;;8.33;5.67;;;15.70;99.90;;;;;;6204506;23;20522;-73
2023/02/16 14:15:18;;;;;;;6.83;4.40;;;15.50;99.90;;;;;;6204450;23;20489;-72
2023/02/16 14:17:46;;;;;;;8.07;4.67;;;15.10;99.90;;;;;;6205034;23;20391;-73
2023/02/16 14:20:28;;;;;;;6.67;5.43;;;15.50;99.90;;;;;;6204324;23;20485;-73
2023/02/16 14:22:58;;;;;;;5.70;4.80;;;15.10;99.90;;;;;;6205555;23;20391;-73
2023/02/16 14:25:40;;;;;;;9.50;5.10;;;15.30;99.90;;;;;;6204504;23;20417;-73
2023/02/16 14:28:53;;;;;;;7.97;4.93;;;14.90;99.90;;;;;;6203454;23;20420;-73
2023/02/16 14:31:24;;;;;;;6.80;4.47;;;15.30;99.90;;;;;;6203801;23;20463;-73
2023/02/16 14:34:01;;;;;;;6.27;4.93;;;15.10;99.90;;;;;;6205058;23;20473;-73
2023/02/16 14:36:30;;;;;;;6.37;4.33;;;15.40;99.90;;;;;;6205069;23;20795;-73
2023/02/16 14:38:58;;;;;;;8.57;5.10;;;15.10;99.90;;;;;;6204842;23;20410;-73
2023/02/16 14:41:32;;;;;;;9.93;5.07;;;14.90;99.90;;;;;;6203292;23;20411;-73
2023/02/16 14:44:35;;;;;;;8.57;4.43;;;14.60;99.90;;;;;;6203604;23;20446;-73
2023/02/16 14:47:15;;;;;;;5.43;4.20;;;14.60;99.90;;;;;;6203830;23;20395;-73
2023/02/16 14:50:08;;;;;;;14.43;5.30;;;14.80;99.90;;;;;;6204359;23;20392;-73
2023/02/16 14:55:35;;;;;;;6.97;4.50;;;15.00;99.90;;;;;;6215849;22;20457;-74
2023/02/16 14:58:11;;;;;;;6.43;3.83;;;14.70;99.90;;;;;;6233599;23;20418;-74
2023/02/16 15:00:45;;;;;;;5.50;4.00;;;15.20;99.90;;;;;;6235122;23;21138;-74
2023/02/16 15:03:17;;;;;;;7.43;4.97;;;14.40;99.90;;;;;;6236746;23;20406;-73
2023/02/16 15:05:56;;;;;;;7.70;4.30;;;13.80;99.90;;;;;;6236768;23;20402;-73
2023/02/16 15:08:24;;;;;;;5.83;3.97;;;13.40;99.90;;;;;;6236310;23;20883;-74
2023/02/16 15:10:53;;;;;;;5.20;4.40;;;13.20;99.90;;;;;;6235877;23;20446;-74
2023/02/16 15:13:21;;;;;;;10.50;4.53;;;13.00;99.90;;;;;;6236314;23;20414;-73
2023/02/16 15:15:50;;;;;;;7.47;4.13;;;12.90;99.90;;;;;;6236483;23;20410;-73
2023/02/16 15:18:20;;;;;;;7.30;4.23;;;12.80;99.90;;;;;;6235699;23;20412;-73
2023/02/16 15:20:51;;;;;;;6.13;4.20;;;12.80;99.90;;;;;;6236169;23;20421;-73
2023/02/16 15:23:20;;;;;;;5.43;4.00;;;12.80;99.90;;;;;;6236345;23;20528;-73
2023/02/16 15:25:57;;;;;;;8.40;4.73;;;12.90;99.90;;;;;;6236822;23;20467;-72
2023/02/16 15:28:28;;;;;;;6.60;5.10;;;12.70;99.90;;;;;;6206853;23;20643;-73
2023/02/16 15:30:57;;;;;;;4.40;4.00;;;12.60;99.90;;;;;;6205555;23;20526;-73
2023/02/16 15:33:31;;;;;;;9.00;4.40;;;12.60;99.90;;;;;;6205054;23;20442;-73
2023/02/16 15:36:00;;;;;;;6.27;4.47;;;12.60;99.90;;;;;;6205867;23;20403;-74
2023/02/16 15:38:31;;;;;;;9.40;4.63;;;12.60;99.90;;;;;;6208555;23;20434;-76
2023/02/16 15:41:01;;;;;;;7.33;5.10;;;12.60;99.90;;;;;;6209787;23;20513;-71
2023/02/16 15:43:34;;;;;;;5.90;4.13;;;12.50;99.90;;;;;;6211402;23;20443;-77
2023/02/16 15:46:03;;;;;;;7.80;3.80;;;12.50;99.90;;;;;;6210191;23;20691;-70
2023/02/16 15:48:32;;;;;;;7.53;4.33;;;12.50;99.90;;;;;;6211637;23;20478;-73
2023/02/16 15:51:11;;;;;;;6.40;4.40;;;12.50;99.90;;;;;;6206504;23;20826;-73
2023/02/16 15:53:50;;;;;;;7.10;4.80;;;12.40;99.90;;;;;;6206079;23;20716;-68
2023/02/16 15:56:36;;;;;;;11.03;4.90;;;12.30;99.90;;;;;;6206463;23;20446;-72
2023/02/16 15:59:21;;;;;;;12.73;4.63;;;12.30;99.90;;;;;;6207926;23;20403;-72
2023/02/16 16:01:48;;;;;;;6.80;4.87;;;12.20;99.90;;;;;;6208792;23;20425;-72
2023/02/16 16:04:20;;;;;;;6.83;5.07;;;12.20;99.90;;;;;;6207488;23;20438;-74
2023/02/16 16:06:49;;;;;;;6.80;4.50;;;12.10;99.90;;;;;;6206176;23;20888;-71
2023/02/16 16:09:22;;;;;;;11.03;4.50;;;12.00;99.90;;;;;;6212334;23;20798;-72
2023/02/16 16:11:51;;;;;;;12.00;6.07;;;11.90;99.90;;;;;;6213495;23;20521;-71
2023/02/16 16:14:19;;;;;;;10.40;5.50;;;11.80;99.90;;;;;;6212843;23;20932;-72
2023/02/16 16:16:47;;;;;;;4.80;4.10;;;11.60;99.90;;;;;;6213015;23;20407;-74
2023/02/16 16:19:18;;;;;;;6.77;5.23;;;11.60;99.90;;;;;;6211870;23;20419;-70
2023/02/16 16:21:53;;;;;;;8.47;5.00;;;11.60;99.90;;;;;;6209399;23;20411;-71
2023/02/16 16:24:33;;;;;;;6.10;4.93;;;11.60;99.90;;;;;;6209491;23;20402;-72
2023/02/16 16:27:04;;;;;;;9.23;5.33;;;11.40;99.90;;;;;;6208572;23;20403;-72
2023/02/16 16:29:39;;;;;;;7.20;3.93;;;11.30;99.90;;;;;;6207317;23;20399;-73
2023/02/16 16:32:15;;;;;;;7.40;3.97;;;11.30;99.90;;;;;;6209352;23;20473;-72
2023/02/16 16:34:42;;;;;;;7.87;4.87;;;11.40;99.90;;;;;;6208990;23;20423;-72
2023/02/16 16:37:22;;;;;;;5.43;3.50;;;11.30;99.90;;;;;;6208956;23;20417;-73
2023/02/16 16:40:01;;;;;;;6.97;4.53;;;11.10;99.90;;;;;;6208082;23;20402;-71
2023/02/16 16:42:29;;;;;;;7.60;4.13;;;11.20;99.90;;;;;;6205398;23;20407;-71
2023/02/16 16:45:02;;;;;;;5.50;4.30;;;11.20;99.90;;;;;;6205485;23;21216;-71
2023/02/16 16:47:33;;;;;;;16.50;5.10;;;11.10;99.90;;;;;;6205335;23;20428;-71
2023/02/16 16:50:03;;;;;;;5.00;4.50;;;11.30;99.90;;;;;;6205177;23;20396;-72
2023/02/16 16:52:39;;;;;;;9.60;3.77;;;10.90;99.90;;;;;;6204424;23;20446;-72
2023/02/16 16:55:21;;;;;;;7.43;4.90;;;10.80;99.90;;;;;;6206153;23;20391;-73
2023/02/16 16:57:51;;;;;;;9.53;4.00;;;10.90;99.90;;;;;;6205202;23;20396;-73
2023/02/16 17:00:20;;;;;;;7.47;5.23;;;10.70;99.90;;;;;;6205145;23;21163;-71
2023/02/16 17:02:47;;;;;;;7.90;5.00;;;10.70;99.90;;;;;;6205286;23;20427;-72
2023/02/16 17:05:13;;;;;;;8.17;4.93;;;10.80;99.90;;;;;;6204686;23;20430;-72
2023/02/16 17:07:40;;;;;;;6.33;4.20;;;10.50;99.90;;;;;;6205753;23;20419;-71
2023/02/16 17:10:08;;;;;;;7.77;3.70;;;10.70;99.90;;;;;;6205853;23;20419;-71
2023/02/16 17:12:35;;;;;;;5.40;3.83;;;10.60;99.90;;;;;;6205977;23;20455;-71
2023/02/16 17:15:07;;;;;;;6.53;4.20;;;10.70;99.90;;;;;;6204656;23;20419;-73
2023/02/16 17:17:37;;;;;;;8.87;4.23;;;10.60;99.90;;;;;;6206008;23;20400;-72
2023/02/16 17:20:06;;;;;;;10.20;5.60;;;10.30;99.90;;;;;;6205807;23;20415;-73
2023/02/16 17:22:33;;;;;;;15.57;5.70;;;10.40;99.90;;;;;;6204979;23;20403;-74
2023/02/16 17:25:00;;;;;;;17.43;6.97;;;10.40;99.90;;;;;;6204970;23;20740;-74
2023/02/16 17:27:26;;;;;;;6.63;4.87;;;10.00;99.90;;;;;;6205458;23;20743;-72
2023/02/16 17:29:53;;;;;;;14.20;6.57;;;9.90;99.90;;;;;;6205901;23;20420;-73
2023/02/16 17:32:23;;;;;;;15.83;6.07;;;9.80;99.90;;;;;;6205216;23;20484;-73
2023/02/16 17:34:49;;;;;;;6.57;4.10;;;9.80;99.90;;;;;;6205292;23;20415;-73
2023/02/16 17:37:16;;;;;;;6.10;4.10;;;9.80;99.90;;;;;;6204853;23;20757;-74
2023/02/16 17:39:43;;;;;;;8.33;4.70;;;9.80;99.90;;;;;;6205241;23;20414;-73
2023/02/16 17:42:11;;;;;;;8.90;5.17;;;9.90;99.90;;;;;;6205036;23;20411;-73
2023/02/16 17:44:38;;;;;;;8.07;4.70;;;10.00;99.90;;;;;;6204527;23;21166;-73
2023/02/16 17:47:05;;;;;;;8.60;5.20;;;10.10;99.90;;;;;;6205612;23;20498;-74
2023/02/16 17:49:33;;;;;;;5.83;4.60;;;9.90;99.90;;;;;;6204829;23;20967;-72
2023/02/16 17:52:00;;;;;;;10.70;5.40;;;10.00;99.90;;;;;;6204272;23;20925;-73
2023/02/16 17:54:27;;;;;;;11.17;5.30;;;10.00;99.90;;;;;;6205315;23;20418;-73
2023/02/16 17:56:54;;;;;;;8.83;5.50;;;10.00;99.90;;;;;;6204659;23;20439;-72
2023/02/16 17:59:21;;;;;;;10.90;5.30;;;9.80;99.90;;;;;;6205678;23;20758;-76
2023/02/16 18:01:48;;;;;;;8.33;5.13;;;9.80;99.90;;;;;;6205310;23;20418;-72
2023/02/16 18:04:15;;;;;;;8.30;5.17;;;9.90;99.90;;;;;;6204786;23;20411;-72